Time;durP1;ratioP1;P1;durP2;ratioP2;P2;SDS_P1;SDS_P2;PMS_P1;PMS_P2;Temp;Humidity;BMP_temperature;BMP_pressure;BME280_temperature;BME280_humidity;BME280_pressure;Samples;Min_cycle;Max_cycle;Signal;HPM_P1;HPM_P2
2021/04/04 00:01:39;;;;;;;18.37;4.10;;;7.50;99.90;;;;;;4904739;29;20208;-75
2021/04/04 00:04:24;;;;;;;13.97;3.50;;;7.50;99.90;;;;;;4916100;29;20567;-75
2021/04/04 00:07:09;;;;;;;16.47;3.60;;;7.50;99.90;;;;;;4916652;29;20299;-75
2021/04/04 00:09:55;;;;;;;26.57;4.07;;;7.50;99.90;;;;;;4908544;29;20667;-75
2021/04/04 00:12:40;;;;;;;19.97;3.43;;;7.50;99.90;;;;;;4911914;29;20231;-75
2021/04/04 00:15:24;;;;;;;18.47;3.97;;;7.50;99.90;;;;;;4904215;29;20241;-75
2021/04/04 00:18:09;;;;;;;12.87;3.90;;;7.50;99.90;;;;;;4911878;29;20231;-75
2021/04/04 00:20:54;;;;;;;13.30;3.43;;;7.50;99.90;;;;;;4918069;29;20207;-75
2021/04/04 00:23:39;;;;;;;12.47;3.57;;;7.50;99.90;;;;;;4917132;29;20228;-75
2021/04/04 00:26:25;;;;;;;20.33;3.83;;;7.50;99.90;;;;;;4917518;29;20247;-75
2021/04/04 00:29:10;;;;;;;13.13;3.20;;;7.50;99.90;;;;;;4910678;29;20735;-75
2021/04/04 00:31:56;;;;;;;13.53;3.30;;;7.50;99.90;;;;;;4910826;29;20244;-75
2021/04/04 00:34:41;;;;;;;11.53;3.40;;;7.50;99.90;;;;;;4909156;29;20688;-75
2021/04/04 00:37:29;;;;;;;10.40;2.87;;;7.50;99.90;;;;;;4917008;29;20287;-75
2021/04/04 00:40:16;;;;;;;14.20;3.60;;;7.40;99.90;;;;;;4908393;29;20239;-75
2021/04/04 00:43:02;;;;;;;15.90;3.17;;;7.40;99.90;;;;;;4908570;29;20749;-75
2021/04/04 00:45:47;;;;;;;17.60;3.33;;;7.40;99.90;;;;;;4917348;29;20212;-75
2021/04/04 00:48:32;;;;;;;11.80;3.03;;;7.40;99.90;;;;;;4916754;29;20231;-75
2021/04/04 00:51:16;;;;;;;15.07;3.50;;;7.40;99.90;;;;;;4910377;29;20215;-75
2021/04/04 00:54:02;;;;;;;17.07;3.60;;;7.40;99.90;;;;;;4915021;29;20215;-75
2021/04/04 00:56:47;;;;;;;17.73;4.10;;;7.40;99.90;;;;;;4917267;29;20572;-75
2021/04/04 00:59:33;;;;;;;19.30;3.27;;;7.40;99.90;;;;;;4922304;29;20283;-75
2021/04/04 01:02:18;;;;;;;16.00;3.97;;;7.40;99.90;;;;;;4936210;29;20285;-75
2021/04/04 01:05:03;;;;;;;17.53;3.87;;;7.40;99.90;;;;;;4936401;29;20214;-75
2021/04/04 01:07:48;;;;;;;16.40;3.13;;;7.40;99.90;;;;;;4934693;29;20207;-75
2021/04/04 01:10:35;;;;;;;12.93;3.27;;;7.40;99.90;;;;;;4923800;29;20275;-75
2021/04/04 01:13:25;;;;;;;12.70;3.40;;;7.40;99.90;;;;;;4911032;29;20425;-75
2021/04/04 01:16:15;;;;;;;11.27;3.30;;;7.40;99.90;;;;;;4913902;29;20248;-75
2021/04/04 01:19:09;;;;;;;18.50;3.60;;;7.40;99.90;;;;;;4905123;29;20314;-75
2021/04/04 01:21:58;;;;;;;13.90;3.40;;;7.40;99.90;;;;;;4915576;29;20203;-75
2021/04/04 01:24:53;;;;;;;11.40;2.80;;;7.40;99.90;;;;;;4916163;29;20208;-75
2021/04/04 01:27:47;;;;;;;9.53;2.80;;;7.40;99.90;;;;;;4906128;29;20252;-76
2021/04/04 01:30:35;;;;;;;14.03;3.13;;;7.40;99.90;;;;;;4911679;29;20215;-75
2021/04/04 01:33:22;;;;;;;15.37;3.70;;;7.40;99.90;;;;;;4911275;29;20289;-75
2021/04/04 01:36:12;;;;;;;15.00;2.83;;;7.40;99.90;;;;;;4907262;29;20277;-75
2021/04/04 01:38:59;;;;;;;15.63;3.30;;;7.40;99.90;;;;;;4909718;29;20276;-75
2021/04/04 01:41:45;;;;;;;14.50;2.87;;;7.40;99.90;;;;;;4911842;29;20236;-75
2021/04/04 01:44:32;;;;;;;17.20;3.67;;;7.40;99.90;;;;;;4904897;29;20251;-75
2021/04/04 01:47:18;;;;;;;13.03;3.63;;;7.40;99.90;;;;;;4912448;29;20211;-75
2021/04/04 01:50:06;;;;;;;17.63;3.63;;;7.40;99.90;;;;;;4916693;29;20733;-75
2021/04/04 01:52:51;;;;;;;14.20;3.20;;;7.40;99.90;;;;;;4915561;29;20578;-75
2021/04/04 01:55:38;;;;;;;14.47;3.83;;;7.40;99.90;;;;;;4914311;29;20775;-77
2021/04/04 01:58:25;;;;;;;13.03;3.50;;;7.40;99.90;;;;;;4900282;29;20239;-75
2021/04/04 02:01:12;;;;;;;15.80;3.30;;;7.40;99.90;;;;;;4920845;29;20283;-75
2021/04/04 02:03:59;;;;;;;11.10;3.30;;;7.40;99.90;;;;;;4918916;29;20206;-75
2021/04/04 02:06:46;;;;;;;10.77;3.53;;;7.40;99.90;;;;;;4907005;29;20202;-75
2021/04/04 02:09:32;;;;;;;16.60;3.73;;;7.40;99.90;;;;;;4910309;29;20299;-75
2021/04/04 02:12:19;;;;;;;14.70;3.63;;;7.40;99.90;;;;;;4911769;29;20501;-75
2021/04/04 02:15:06;;;;;;;15.57;3.43;;;7.40;99.90;;;;;;4900140;29;20259;-75
2021/04/04 02:17:52;;;;;;;13.47;3.43;;;7.40;99.90;;;;;;4903543;29;20710;-75
2021/04/04 02:20:38;;;;;;;16.50;3.87;;;7.40;99.90;;;;;;4895692;29;20221;-75
2021/04/04 02:23:24;;;;;;;14.17;2.80;;;7.40;99.90;;;;;;4903364;29;20696;-75
2021/04/04 02:26:10;;;;;;;11.77;3.00;;;7.40;99.90;;;;;;4892552;29;20238;-75
2021/04/04 02:28:54;;;;;;;9.53;2.70;;;7.40;99.90;;;;;;4899290;29;20253;-75
2021/04/04 02:31:41;;;;;;;12.10;3.13;;;7.40;99.90;;;;;;4903008;29;20288;-75
2021/04/04 02:34:34;;;;;;;13.00;3.00;;;7.40;99.90;;;;;;4909109;29;20232;-75
2021/04/04 02:37:19;;;;;;;10.17;2.33;;;7.40;99.90;;;;;;4893575;29;20224;-75
2021/04/04 02:40:06;;;;;;;7.87;2.37;;;7.40;99.90;;;;;;4899291;29;20244;-75
2021/04/04 02:42:52;;;;;;;13.10;3.20;;;7.40;99.90;;;;;;4899350;29;20576;-76
2021/04/04 02:45:38;;;;;;;14.70;3.13;;;7.40;99.90;;;;;;4898814;29;20216;-76
2021/04/04 02:48:27;;;;;;;14.03;3.30;;;7.30;99.90;;;;;;4893686;29;20611;-76
2021/04/04 02:51:16;;;;;;;16.17;3.20;;;7.40;99.90;;;;;;4895076;29;20630;-76
2021/04/04 02:54:03;;;;;;;17.27;3.67;;;7.30;99.90;;;;;;4900616;29;20252;-76
2021/04/04 02:56:49;;;;;;;10.93;3.23;;;7.40;99.90;;;;;;4902021;29;20208;-76
2021/04/04 02:59:42;;;;;;;12.47;3.10;;;7.40;99.90;;;;;;4892502;29;20283;-76
2021/04/04 03:02:29;;;;;;;11.23;2.60;;;7.40;99.90;;;;;;4899974;29;20247;-76
2021/04/04 03:05:14;;;;;;;15.80;3.00;;;7.30;99.90;;;;;;4899803;29;20223;-76
2021/04/04 03:08:03;;;;;;;17.47;2.97;;;7.30;99.90;;;;;;4900566;29;20224;-76
2021/04/04 03:10:50;;;;;;;10.93;2.57;;;7.30;99.90;;;;;;4918035;29;20223;-76
2021/04/04 03:13:36;;;;;;;13.17;2.93;;;7.30;99.90;;;;;;4918615;29;20211;-75
2021/04/04 03:16:22;;;;;;;14.40;3.07;;;7.30;99.90;;;;;;4904994;29;20228;-76
2021/04/04 03:19:08;;;;;;;18.17;3.50;;;7.30;99.90;;;;;;4917985;29;20254;-76
2021/04/04 03:21:54;;;;;;;13.47;3.17;;;7.30;99.90;;;;;;4907358;29;20575;-76
2021/04/04 03:24:41;;;;;;;15.93;3.17;;;7.30;99.90;;;;;;4909417;29;20224;-76
2021/04/04 03:27:27;;;;;;;15.03;3.00;;;7.30;99.90;;;;;;4901462;29;20208;-76
2021/04/04 03:33:17;;;;;;;10.53;2.80;;;7.30;99.90;;;;;;4911357;29;20215;-76
2021/04/04 03:36:03;;;;;;;12.70;3.13;;;7.30;99.90;;;;;;4915690;29;20263;-76
2021/04/04 03:38:52;;;;;;;21.17;3.40;;;7.30;99.90;;;;;;4916988;29;20235;-76
2021/04/04 03:41:38;;;;;;;13.93;3.27;;;7.30;99.90;;;;;;4900721;29;20245;-76
2021/04/04 03:44:26;;;;;;;9.67;2.93;;;7.30;99.90;;;;;;4905531;29;20211;-76
2021/04/04 03:47:12;;;;;;;11.73;2.53;;;7.30;99.90;;;;;;4906608;29;20214;-76
2021/04/04 03:49:58;;;;;;;13.77;2.97;;;7.30;99.90;;;;;;4908985;29;20343;-76
2021/04/04 03:52:44;;;;;;;8.60;2.70;;;7.30;99.90;;;;;;4907216;29;20577;-76
2021/04/04 03:55:30;;;;;;;15.27;2.40;;;7.30;99.90;;;;;;4898964;29;20225;-75
2021/04/04 03:58:16;;;;;;;10.67;2.73;;;7.30;99.90;;;;;;4905484;29;20589;-75
2021/04/04 04:01:03;;;;;;;11.13;3.20;;;7.30;99.90;;;;;;4903530;29;20238;-75
2021/04/04 04:03:49;;;;;;;9.63;2.53;;;7.30;99.90;;;;;;4909336;29;20278;-75
2021/04/04 04:06:35;;;;;;;10.40;2.47;;;7.30;99.90;;;;;;4916775;29;20995;-75
2021/04/04 04:09:20;;;;;;;10.23;2.53;;;7.30;99.90;;;;;;4916574;29;20731;-76
2021/04/04 04:12:07;;;;;;;13.83;2.40;;;7.30;99.90;;;;;;4906741;29;20310;-76
2021/04/04 04:14:54;;;;;;;9.97;2.50;;;7.30;99.90;;;;;;4905814;29;20224;-76
2021/04/04 04:17:40;;;;;;;14.13;3.07;;;7.30;99.90;;;;;;4908934;29;20226;-76
2021/04/04 04:20:26;;;;;;;12.10;2.50;;;7.30;99.90;;;;;;4921879;29;20207;-76
2021/04/04 04:23:12;;;;;;;5.73;2.10;;;7.30;99.90;;;;;;4916211;29;20211;-76
2021/04/04 04:25:57;;;;;;;7.43;2.07;;;7.30;99.90;;;;;;4915116;29;20692;-76
2021/04/04 04:28:44;;;;;;;5.97;1.70;;;7.30;99.90;;;;;;4915569;29;20231;-76
2021/04/04 04:31:35;;;;;;;5.97;1.77;;;7.30;99.90;;;;;;4915182;29;20549;-76
2021/04/04 04:34:21;;;;;;;10.67;2.37;;;7.30;99.90;;;;;;4916796;29;20211;-76
2021/04/04 04:37:06;;;;;;;7.13;1.83;;;7.30;99.90;;;;;;4915859;29;20231;-76
2021/04/04 04:39:52;;;;;;;8.83;1.80;;;7.30;99.90;;;;;;4915608;29;20371;-76
2021/04/04 04:42:41;;;;;;;8.70;2.47;;;7.30;99.90;;;;;;4916225;29;20211;-76
2021/04/04 04:45:30;;;;;;;18.43;3.30;;;7.30;99.90;;;;;;4916238;29;20275;-76
2021/04/04 04:48:16;;;;;;;7.57;2.23;;;7.30;99.90;;;;;;4915745;29;20356;-76
2021/04/04 04:51:01;;;;;;;8.03;1.93;;;7.30;99.90;;;;;;4915649;29;20310;-76
2021/04/04 04:53:47;;;;;;;14.73;2.40;;;7.30;99.90;;;;;;4913644;29;20212;-76
2021/04/04 04:56:37;;;;;;;9.77;2.40;;;7.30;99.90;;;;;;4916496;29;20768;-76
2021/04/04 04:59:23;;;;;;;8.27;1.83;;;7.30;99.90;;;;;;4912015;29;20715;-76
2021/04/04 05:02:10;;;;;;;15.07;2.60;;;7.20;99.90;;;;;;4913454;29;20574;-76
2021/04/04 05:04:56;;;;;;;10.97;2.57;;;7.30;99.90;;;;;;4914536;29;20273;-76
2021/04/04 05:07:43;;;;;;;8.33;2.30;;;7.20;99.90;;;;;;4914118;29;20287;-75
2021/04/04 05:10:29;;;;;;;7.33;1.93;;;7.20;99.90;;;;;;4915159;29;20271;-76
2021/04/04 05:13:15;;;;;;;9.13;2.30;;;7.20;99.90;;;;;;4913627;29;20254;-76
2021/04/04 05:16:01;;;;;;;10.83;2.07;;;7.20;99.90;;;;;;4910894;29;20280;-76
2021/04/04 05:18:46;;;;;;;7.03;2.30;;;7.20;99.90;;;;;;4912045;29;20329;-75
2021/04/04 05:21:32;;;;;;;7.90;2.30;;;7.20;99.90;;;;;;4916023;29;20216;-76
2021/04/04 05:24:17;;;;;;;11.90;2.20;;;7.20;99.90;;;;;;4914327;29;20260;-76
2021/04/04 05:27:03;;;;;;;10.77;2.30;;;7.20;99.90;;;;;;4914003;29;20203;-76
2021/04/04 05:29:48;;;;;;;7.83;2.20;;;7.20;99.90;;;;;;4912785;29;20239;-76
2021/04/04 05:32:33;;;;;;;10.33;2.23;;;7.20;99.90;;;;;;4913444;29;20216;-76
2021/04/04 05:35:20;;;;;;;11.90;2.33;;;7.20;99.90;;;;;;4919375;29;20235;-76
2021/04/04 05:38:07;;;;;;;8.50;2.13;;;7.20;99.90;;;;;;4918297;29;20210;-76
2021/04/04 05:40:55;;;;;;;11.40;2.40;;;7.30;99.90;;;;;;4913966;29;20276;-76
2021/04/04 05:43:45;;;;;;;11.03;2.33;;;7.30;99.90;;;;;;4918765;29;20339;-75
2021/04/04 05:46:35;;;;;;;15.83;2.40;;;7.30;99.90;;;;;;4915548;29;20196;-75
2021/04/04 05:49:33;;;;;;;14.37;2.70;;;7.30;99.90;;;;;;4915830;29;20220;-76
2021/04/04 05:52:27;;;;;;;11.37;2.10;;;7.30;99.90;;;;;;4917957;29;20275;-76
2021/04/04 05:55:33;;;;;;;6.70;2.13;;;7.30;99.90;;;;;;4914708;29;20207;-75
2021/04/04 05:58:26;;;;;;;11.80;2.10;;;7.30;99.90;;;;;;4915088;29;20258;-76
2021/04/04 06:01:29;;;;;;;11.13;2.33;;;7.30;99.90;;;;;;4911062;29;20200;-76
2021/04/04 06:04:31;;;;;;;11.17;2.10;;;7.30;99.90;;;;;;4914291;29;20345;-76
2021/04/04 06:07:52;;;;;;;16.00;2.87;;;7.40;99.90;;;;;;4914057;29;20283;-76
2021/04/04 06:10:53;;;;;;;8.47;2.17;;;7.40;99.90;;;;;;4913578;29;20224;-76
2021/04/04 06:13:54;;;;;;;15.27;2.47;;;7.40;99.90;;;;;;4914333;29;20219;-75
2021/04/04 06:16:51;;;;;;;9.53;2.17;;;7.40;99.90;;;;;;4914957;29;20785;-76
2021/04/04 06:19:43;;;;;;;9.67;2.23;;;7.40;99.90;;;;;;4914179;29;20300;-75
2021/04/04 06:22:34;;;;;;;10.50;2.13;;;7.40;99.90;;;;;;4912346;29;20801;-76
2021/04/04 06:25:27;;;;;;;10.23;2.60;;;7.40;99.90;;;;;;4914108;29;20914;-76
2021/04/04 06:28:23;;;;;;;8.10;2.17;;;7.50;99.90;;;;;;4911950;29;20239;-76
2021/04/04 06:31:16;;;;;;;6.53;2.00;;;7.50;99.90;;;;;;4913873;29;20240;-76
2021/04/04 06:34:08;;;;;;;7.67;2.27;;;7.50;99.90;;;;;;4912627;29;20728;-75
2021/04/04 06:37:04;;;;;;;8.07;2.40;;;7.60;99.90;;;;;;4915020;29;20624;-76
2021/04/04 06:40:03;;;;;;;9.53;2.40;;;7.60;99.90;;;;;;4915076;29;20791;-76
2021/04/04 06:43:01;;;;;;;11.13;2.30;;;7.60;99.90;;;;;;4914985;29;20203;-76
2021/04/04 06:45:59;;;;;;;8.70;1.80;;;7.70;99.90;;;;;;4916802;29;20215;-76
2021/04/04 06:48:58;;;;;;;9.17;2.30;;;7.70;99.90;;;;;;4913553;29;20283;-75
2021/04/04 06:51:55;;;;;;;11.97;2.50;;;7.70;99.90;;;;;;4913027;29;20287;-76
2021/04/04 06:54:52;;;;;;;11.60;2.60;;;7.70;99.90;;;;;;4916974;29;20215;-75
2021/04/04 06:57:48;;;;;;;14.77;2.80;;;7.80;99.90;;;;;;4912811;29;20244;-75
2021/04/04 07:00:41;;;;;;;9.90;2.20;;;7.80;99.90;;;;;;4916310;29;20250;-76
2021/04/04 07:03:35;;;;;;;6.90;2.37;;;7.90;99.90;;;;;;4917465;29;20582;-75
2021/04/04 07:07:02;;;;;;;9.80;2.10;;;7.90;99.90;;;;;;4916014;29;20259;-75
2021/04/04 07:10:01;;;;;;;9.50;2.17;;;8.00;99.90;;;;;;4883726;29;20238;-76
2021/04/04 07:13:11;;;;;;;11.87;2.37;;;8.00;99.90;;;;;;4915614;29;20219;-76
2021/04/04 07:16:15;;;;;;;17.00;3.13;;;8.10;99.90;;;;;;4917154;29;20255;-75
2021/04/04 07:19:21;;;;;;;7.67;2.60;;;8.10;99.90;;;;;;4916782;29;20226;-76
2021/04/04 07:22:33;;;;;;;6.90;2.23;;;8.20;99.90;;;;;;4914721;29;20200;-76
2021/04/04 07:25:34;;;;;;;10.87;2.27;;;8.30;99.90;;;;;;4915932;29;20700;-76
2021/04/04 07:28:38;;;;;;;12.37;2.40;;;8.30;99.90;;;;;;4915844;29;20303;-76
2021/04/04 07:31:26;;;;;;;10.23;2.37;;;8.30;99.90;;;;;;4915910;29;20353;-76
2021/04/04 07:34:16;;;;;;;10.17;2.53;;;8.40;99.90;;;;;;4916953;29;20215;-76
2021/04/04 07:37:08;;;;;;;11.73;2.60;;;8.50;99.90;;;;;;4918210;29;20215;-76
2021/04/04 07:40:00;;;;;;;10.57;2.70;;;8.50;99.90;;;;;;4926520;29;20227;-76
2021/04/04 07:42:52;;;;;;;9.93;2.87;;;8.60;99.90;;;;;;4935728;29;20211;-76
2021/04/04 07:45:48;;;;;;;10.63;2.70;;;8.60;99.90;;;;;;4933011;29;20703;-76
2021/04/04 07:48:55;;;;;;;11.33;2.70;;;8.70;99.90;;;;;;4931987;29;20235;-75
2021/04/04 07:51:44;;;;;;;6.13;2.67;;;8.80;99.90;;;;;;4925363;29;20275;-77
2021/04/04 07:54:47;;;;;;;11.60;3.17;;;8.80;99.90;;;;;;4911890;29;20214;-76
2021/04/04 07:57:45;;;;;;;7.83;2.50;;;8.90;99.90;;;;;;4919462;29;20259;-76
2021/04/04 08:00:32;;;;;;;11.90;2.60;;;8.90;99.90;;;;;;4916982;29;20291;-76
2021/04/04 08:03:22;;;;;;;13.73;2.63;;;9.00;99.90;;;;;;4914656;29;20200;-76
2021/04/04 08:06:10;;;;;;;10.20;2.97;;;9.00;99.90;;;;;;4914379;29;20360;-76
2021/04/04 08:09:03;;;;;;;13.20;3.30;;;9.10;99.90;;;;;;4915097;29;20667;-76
2021/04/04 08:11:54;;;;;;;8.23;2.07;;;9.10;99.90;;;;;;4914899;29;20306;-76
2021/04/04 08:14:53;;;;;;;8.77;2.17;;;9.20;99.90;;;;;;4914706;29;20207;-76
2021/04/04 08:17:38;;;;;;;10.00;2.60;;;9.20;99.90;;;;;;4911757;29;20247;-76
2021/04/04 08:20:28;;;;;;;10.00;2.77;;;9.20;99.90;;;;;;4913783;29;20228;-76
2021/04/04 08:23:22;;;;;;;13.33;4.50;;;9.30;99.90;;;;;;4909304;29;20227;-76
2021/04/04 08:26:12;;;;;;;17.80;3.90;;;9.30;99.90;;;;;;4913429;29;20706;-76
2021/04/04 08:29:02;;;;;;;11.40;2.90;;;9.40;99.90;;;;;;4909228;29;20300;-76
2021/04/04 08:31:53;;;;;;;11.57;2.60;;;9.40;99.90;;;;;;4914589;29;20223;-76
2021/04/04 08:34:43;;;;;;;8.93;4.50;;;9.50;99.90;;;;;;4912222;29;20207;-76
2021/04/04 08:37:32;;;;;;;8.90;4.47;;;9.50;99.90;;;;;;4911799;29;20611;-76
2021/04/04 08:40:19;;;;;;;10.17;5.83;;;9.60;99.90;;;;;;4913282;29;20318;-76
2021/04/04 08:43:06;;;;;;;9.20;4.33;;;9.60;99.90;;;;;;4915669;29;20202;-76
2021/04/04 08:45:58;;;;;;;15.30;4.90;;;9.60;99.90;;;;;;4910179;29;20220;-76
2021/04/04 08:48:44;;;;;;;11.03;3.70;;;9.60;99.90;;;;;;4912990;29;20255;-76
2021/04/04 08:51:31;;;;;;;7.37;2.70;;;9.70;99.90;;;;;;4912243;29;20336;-76
2021/04/04 08:54:20;;;;;;;7.47;2.90;;;9.70;99.90;;;;;;4909186;29;20248;-76
2021/04/04 08:57:07;;;;;;;8.17;3.70;;;9.70;99.90;;;;;;4913242;29;20336;-76
2021/04/04 08:59:54;;;;;;;6.13;2.50;;;9.70;99.90;;;;;;4912092;29;20235;-76
2021/04/04 09:02:45;;;;;;;5.93;2.53;;;9.70;99.90;;;;;;4912564;29;20207;-76
2021/04/04 09:05:33;;;;;;;11.57;3.30;;;9.80;99.90;;;;;;4911385;29;20583;-76
2021/04/04 09:08:20;;;;;;;9.97;3.57;;;9.70;99.90;;;;;;4914508;29;20234;-76
2021/04/04 09:11:06;;;;;;;11.83;3.63;;;9.80;99.90;;;;;;4914436;29;20223;-76
2021/04/04 09:13:57;;;;;;;7.07;2.30;;;9.80;99.90;;;;;;4916734;29;20252;-76
2021/04/04 09:16:52;;;;;;;7.87;2.90;;;9.80;99.90;;;;;;4915406;29;20211;-76
2021/04/04 09:19:40;;;;;;;9.03;2.87;;;9.90;99.90;;;;;;4914952;29;20247;-76
2021/04/04 09:22:25;;;;;;;7.47;2.47;;;9.90;99.90;;;;;;4913540;29;20408;-76
2021/04/04 09:25:11;;;;;;;9.67;3.20;;;9.90;99.90;;;;;;4916174;29;20224;-76
2021/04/04 09:27:59;;;;;;;7.77;2.83;;;9.90;99.90;;;;;;4916950;29;20566;-76
2021/04/04 09:30:46;;;;;;;8.07;3.50;;;9.90;99.90;;;;;;4913616;29;20264;-76
2021/04/04 09:33:35;;;;;;;10.33;3.73;;;9.90;99.90;;;;;;4914938;29;20227;-76
2021/04/04 09:36:19;;;;;;;8.50;3.00;;;9.90;99.90;;;;;;4917612;29;20282;-76
2021/04/04 09:39:05;;;;;;;8.70;3.30;;;10.00;99.90;;;;;;4911968;29;20280;-76
2021/04/04 09:41:51;;;;;;;8.23;3.20;;;10.00;99.90;;;;;;4917415;29;20585;-76
2021/04/04 09:44:36;;;;;;;8.57;2.70;;;10.00;99.90;;;;;;4916402;29;20216;-76
2021/04/04 09:47:34;;;;;;;4.63;2.00;;;10.10;99.90;;;;;;4919646;29;20577;-76
2021/04/04 09:50:22;;;;;;;4.80;2.40;;;10.20;99.90;;;;;;4916988;29;20228;-76
2021/04/04 09:53:07;;;;;;;6.83;2.70;;;10.30;99.90;;;;;;4918113;29;20736;-76
2021/04/04 09:55:51;;;;;;;5.83;2.63;;;10.40;99.90;;;;;;4917244;29;20219;-76
2021/04/04 09:58:39;;;;;;;5.30;2.30;;;10.40;99.90;;;;;;4916845;29;20248;-76
2021/04/04 10:01:25;;;;;;;6.23;2.33;;;10.60;99.90;;;;;;4918681;29;20692;-76
2021/04/04 10:04:10;;;;;;;3.17;1.87;;;10.60;99.90;;;;;;4920227;29;20292;-76
2021/04/04 10:06:59;;;;;;;6.00;2.33;;;10.70;99.90;;;;;;4917886;29;20243;-76
2021/04/04 10:09:48;;;;;;;5.10;2.30;;;10.80;99.90;;;;;;4917735;29;20239;-76
2021/04/04 10:12:54;;;;;;;6.63;2.53;;;10.80;99.90;;;;;;4916772;29;20227;-76
2021/04/04 10:15:41;;;;;;;5.73;3.23;;;10.90;99.90;;;;;;4914926;29;20235;-76
2021/04/04 10:18:27;;;;;;;5.10;2.33;;;10.90;99.90;;;;;;4917625;29;20227;-76
2021/04/04 10:21:12;;;;;;;5.57;2.50;;;11.00;99.90;;;;;;4919741;29;20220;-76
2021/04/04 10:23:58;;;;;;;4.87;2.60;;;11.00;99.90;;;;;;4913965;29;21281;-76
2021/04/04 10:26:43;;;;;;;5.70;2.63;;;11.10;99.90;;;;;;4920448;29;20291;-76
2021/04/04 10:29:28;;;;;;;7.20;3.20;;;11.10;99.90;;;;;;4917014;29;20231;-76
2021/04/04 10:32:13;;;;;;;4.83;3.30;;;11.10;99.90;;;;;;4914986;29;20271;-76
2021/04/04 10:34:58;;;;;;;5.13;3.00;;;11.20;99.90;;;;;;4918111;29;20215;-76
2021/04/04 10:37:43;;;;;;;7.80;3.40;;;11.20;99.90;;;;;;4915660;29;20231;-76
2021/04/04 10:40:44;;;;;;;7.03;3.10;;;11.30;99.90;;;;;;4916412;29;20215;-75
2021/04/04 10:43:36;;;;;;;6.33;2.70;;;11.40;99.90;;;;;;4916943;29;20801;-75
2021/04/04 10:46:25;;;;;;;6.37;2.43;;;11.50;99.90;;;;;;4914445;29;20741;-76
2021/04/04 10:49:10;;;;;;;6.90;2.70;;;11.50;99.90;;;;;;4916093;29;20235;-76
2021/04/04 10:51:56;;;;;;;7.90;3.20;;;11.60;99.90;;;;;;4915412;29;20235;-76
2021/04/04 10:54:41;;;;;;;4.43;2.27;;;11.70;99.90;;;;;;4915530;29;20308;-76
2021/04/04 10:57:28;;;;;;;7.50;2.93;;;11.80;99.90;;;;;;4914660;29;20975;-76
2021/04/04 11:00:14;;;;;;;7.73;3.10;;;11.90;99.90;;;;;;4916416;29;20239;-78
2021/04/04 11:03:00;;;;;;;5.93;2.70;;;12.00;99.90;;;;;;4916102;29;20224;-78
2021/04/04 11:05:45;;;;;;;6.50;2.90;;;12.10;99.90;;;;;;4916126;29;20695;-78
2021/04/04 11:08:30;;;;;;;6.00;2.60;;;12.10;99.90;;;;;;4909416;29;20239;-75
2021/04/04 11:11:16;;;;;;;4.87;2.80;;;12.20;99.90;;;;;;4899323;29;20297;-77
2021/04/04 11:14:05;;;;;;;7.03;3.30;;;12.20;99.90;;;;;;4893854;29;20274;-77
2021/04/04 11:16:55;;;;;;;9.13;4.77;;;12.30;99.90;;;;;;4897227;29;20290;-77
2021/04/04 11:19:45;;;;;;;7.97;4.30;;;12.30;99.90;;;;;;4894066;29;20240;-77
2021/04/04 11:22:30;;;;;;;6.80;3.00;;;12.40;99.90;;;;;;4895737;29;20680;-77
2021/04/04 11:25:17;;;;;;;8.37;3.27;;;12.50;99.90;;;;;;4895698;29;20623;-78
2021/04/04 11:28:14;;;;;;;8.57;3.37;;;12.50;99.90;;;;;;4892356;29;20823;-79
2021/04/04 11:31:00;;;;;;;6.70;3.47;;;12.50;99.90;;;;;;4895671;29;20609;-78
2021/04/04 11:33:45;;;;;;;6.93;4.00;;;12.50;99.90;;;;;;4897601;29;20373;-78
2021/04/04 11:36:36;;;;;;;8.47;3.30;;;12.50;99.90;;;;;;4892540;29;20224;-77
2021/04/04 11:39:22;;;;;;;5.67;2.87;;;12.50;99.90;;;;;;4896277;29;20232;-78
2021/04/04 11:42:18;;;;;;;6.70;3.67;;;12.50;99.90;;;;;;4897963;29;20212;-77
2021/04/04 11:45:05;;;;;;;7.77;3.67;;;12.50;99.90;;;;;;4894867;29;20725;-78
2021/04/04 11:47:50;;;;;;;4.50;3.03;;;12.50;99.90;;;;;;4894632;29;20300;-78
2021/04/04 11:50:35;;;;;;;8.27;3.37;;;12.50;99.90;;;;;;4895902;29;20232;-78
2021/04/04 11:53:40;;;;;;;6.30;3.23;;;12.50;99.90;;;;;;4896181;29;20230;-78
2021/04/04 11:56:45;;;;;;;6.67;3.20;;;12.40;99.90;;;;;;4896569;29;20207;-78
2021/04/04 11:59:30;;;;;;;7.53;3.43;;;12.40;99.90;;;;;;4893263;29;20280;-77
2021/04/04 12:02:16;;;;;;;9.37;4.00;;;12.40;99.90;;;;;;4900461;29;20208;-77
2021/04/04 12:05:06;;;;;;;10.30;4.00;;;12.30;99.90;;;;;;4895053;29;20221;-77
2021/04/04 12:07:52;;;;;;;8.57;4.13;;;12.30;99.90;;;;;;4892006;29;20736;-78
2021/04/04 12:10:40;;;;;;;15.17;5.43;;;12.30;99.90;;;;;;4913986;29;20215;-78
2021/04/04 12:13:25;;;;;;;13.90;5.13;;;12.30;99.90;;;;;;4911471;29;20236;-77
2021/04/04 12:16:09;;;;;;;10.43;4.97;;;12.30;99.90;;;;;;4912577;29;20211;-78
2021/04/04 12:19:00;;;;;;;11.63;4.73;;;12.20;99.90;;;;;;4912921;29;20287;-78
2021/04/04 12:21:50;;;;;;;10.07;4.30;;;12.20;99.90;;;;;;4912239;29;20247;-78
2021/04/04 12:24:43;;;;;;;13.63;4.93;;;12.20;99.90;;;;;;4911563;29;20203;-77
2021/04/04 12:27:28;;;;;;;7.83;4.07;;;12.20;99.90;;;;;;4913731;29;20621;-78
2021/04/04 12:30:36;;;;;;;12.70;5.40;;;12.30;99.90;;;;;;4913042;29;20258;-78
2021/04/04 12:33:21;;;;;;;8.67;4.30;;;12.30;99.90;;;;;;4910180;29;20761;-77
2021/04/04 12:36:06;;;;;;;13.97;5.00;;;12.30;99.90;;;;;;4915573;29;20243;-78
2021/04/04 12:38:53;;;;;;;13.53;5.07;;;12.30;99.90;;;;;;4906913;29;20343;-78
2021/04/04 12:41:38;;;;;;;10.03;5.17;;;12.40;99.90;;;;;;4914690;29;20212;-78
2021/04/04 12:44:32;;;;;;;13.37;4.73;;;12.40;99.90;;;;;;4917712;29;20626;-77
2021/04/04 12:47:19;;;;;;;11.30;4.77;;;12.40;99.90;;;;;;4911016;29;20210;-77
2021/04/04 12:50:06;;;;;;;7.47;4.07;;;12.40;99.90;;;;;;4912056;29;20235;-79
2021/04/04 12:52:53;;;;;;;9.03;4.10;;;12.40;99.90;;;;;;4911241;29;20774;-78
2021/04/04 12:55:39;;;;;;;10.17;4.03;;;12.40;99.90;;;;;;4914771;29;20271;-78
2021/04/04 12:58:30;;;;;;;9.00;4.10;;;12.50;99.90;;;;;;4914461;29;20231;-78
2021/04/04 13:01:15;;;;;;;10.30;4.33;;;12.50;99.90;;;;;;4912331;29;20268;-77
2021/04/04 13:04:00;;;;;;;12.70;4.30;;;12.60;99.90;;;;;;4916948;29;20203;-78
2021/04/04 13:06:45;;;;;;;12.17;3.93;;;12.70;99.90;;;;;;4913665;29;20211;-77
2021/04/04 13:09:30;;;;;;;9.57;4.60;;;12.80;99.80;;;;;;4911822;29;20248;-77
2021/04/04 13:12:19;;;;;;;13.03;5.00;;;12.90;99.60;;;;;;4905760;29;20256;-78
2021/04/04 13:15:06;;;;;;;9.87;4.80;;;13.00;99.10;;;;;;4904749;29;20217;-78
2021/04/04 13:17:51;;;;;;;11.63;5.30;;;13.10;98.50;;;;;;4905219;29;20204;-77
2021/04/04 13:20:36;;;;;;;10.73;5.23;;;13.10;98.50;;;;;;4907637;29;20287;-77
2021/04/04 13:23:22;;;;;;;11.57;4.00;;;13.20;97.80;;;;;;4906932;29;20214;-78
2021/04/04 13:26:07;;;;;;;9.00;3.90;;;13.20;97.90;;;;;;4909372;29;20224;-78
2021/04/04 13:28:58;;;;;;;12.37;5.00;;;13.30;97.40;;;;;;4901362;29;20310;-77
2021/04/04 13:31:51;;;;;;;12.50;5.07;;;13.30;98.00;;;;;;4911214;29;20235;-78
2021/04/04 13:34:39;;;;;;;10.10;5.50;;;13.40;97.50;;;;;;4899323;29;20214;-77
2021/04/04 13:37:25;;;;;;;11.57;5.43;;;13.40;97.20;;;;;;4909662;29;20277;-78
2021/04/04 13:40:11;;;;;;;14.07;5.27;;;13.50;96.80;;;;;;4913384;29;20236;-78
2021/04/04 13:42:58;;;;;;;10.90;5.77;;;13.60;97.00;;;;;;4905832;29;20635;-77
2021/04/04 13:45:48;;;;;;;12.27;6.13;;;13.60;96.50;;;;;;4910278;29;20224;-78
2021/04/04 13:48:33;;;;;;;11.57;5.97;;;13.60;96.70;;;;;;4905647;29;20662;-77
2021/04/04 13:51:21;;;;;;;11.53;6.40;;;13.60;96.80;;;;;;4910094;29;20224;-78
2021/04/04 13:54:09;;;;;;;12.07;6.03;;;13.50;96.40;;;;;;4916168;29;20294;-78
2021/04/04 13:56:56;;;;;;;14.83;6.50;;;13.60;96.30;;;;;;4920021;29;20237;-78
2021/04/04 13:59:48;;;;;;;11.83;6.97;;;13.60;96.00;;;;;;4924351;29;20259;-78
2021/04/04 14:02:37;;;;;;;17.87;9.30;;;13.60;95.70;;;;;;4922067;29;20706;-78
2021/04/04 14:05:26;;;;;;;13.63;7.60;;;13.50;95.90;;;;;;4912843;29;20202;-77
2021/04/04 14:08:16;;;;;;;16.20;8.87;;;13.50;96.30;;;;;;4920277;29;20708;-78
2021/04/04 14:11:01;;;;;;;13.57;8.23;;;13.40;96.20;;;;;;4918906;29;20217;-78
2021/04/04 14:13:46;;;;;;;17.30;9.30;;;13.40;96.20;;;;;;4911792;29;20226;-79
2021/04/04 14:16:31;;;;;;;15.73;9.83;;;13.30;95.70;;;;;;4904574;29;20229;-78
2021/04/04 14:19:17;;;;;;;18.10;10.43;;;13.30;95.40;;;;;;4913121;29;20623;-78
2021/04/04 14:22:04;;;;;;;17.57;9.53;;;13.20;96.00;;;;;;4914177;29;20730;-78
2021/04/04 14:24:49;;;;;;;20.37;11.10;;;13.20;96.30;;;;;;4907245;29;20797;-77
2021/04/04 14:27:34;;;;;;;15.53;8.57;;;13.20;96.30;;;;;;4910707;29;20294;-78
2021/04/04 14:30:20;;;;;;;16.37;9.53;;;13.20;95.90;;;;;;4919047;29;20256;-78
2021/04/04 14:33:05;;;;;;;20.03;10.70;;;13.30;96.00;;;;;;4919179;29;20713;-78
2021/04/04 14:35:51;;;;;;;15.67;8.80;;;13.30;95.60;;;;;;4914609;29;20303;-78
2021/04/04 14:38:36;;;;;;;17.03;8.13;;;13.30;96.50;;;;;;4918571;29;20260;-78
2021/04/04 14:41:21;;;;;;;15.60;7.20;;;13.40;96.40;;;;;;4911779;29;20242;-78
2021/04/04 14:44:13;;;;;;;12.77;6.50;;;13.50;95.90;;;;;;4912652;29;20305;-78